Time;durP1;ratioP1;P1;durP2;ratioP2;P2;SDS_P1;SDS_P2;PMS_P1;PMS_P2;Temp;Humidity;BMP_temperature;BMP_pressure;BME280_temperature;BME280_humidity;BME280_pressure;Samples;Min_cycle;Max_cycle;Signal;HPM_P1;HPM_P2
2023/09/18 00:01:28;;;;;;;7.40;4.90;;;;;;;18.78;78.94;100634.88;108693;276;112066;-56
2023/09/18 00:04:06;;;;;;;6.10;4.80;;;;;;;18.80;78.89;100634.72;107500;277;98191;-57
2023/09/18 00:06:48;;;;;;;4.80;4.40;;;;;;;18.81;78.78;100635.80;107753;276;97633;-57
2023/09/18 00:09:23;;;;;;;5.20;4.70;;;;;;;18.80;78.82;100635.98;107675;276;120580;-56
2023/09/18 00:12:00;;;;;;;5.20;4.40;;;;;;;18.77;78.80;100632.36;108222;277;106227;-59
2023/09/18 00:14:45;;;;;;;5.40;4.90;;;;;;;18.73;78.94;100629.73;108907;276;115698;-58
2023/09/18 00:17:23;;;;;;;5.80;4.50;;;;;;;18.70;78.93;100632.73;108820;276;95159;-57
2023/09/18 00:20:03;;;;;;;6.20;4.80;;;;;;;18.69;78.83;100637.14;108889;276;95995;-57
2023/09/18 00:22:39;;;;;;;5.90;4.60;;;;;;;18.67;78.87;100636.04;107893;276;119913;-53
2023/09/18 00:25:10;;;;;;;6.20;4.90;;;;;;;18.63;78.82;100633.96;107686;276;104510;-54
2023/09/18 00:27:44;;;;;;;5.50;4.60;;;;;;;18.58;78.95;100632.53;107657;276;115498;-56
2023/09/18 00:30:19;;;;;;;8.10;5.10;;;;;;;18.54;78.98;100633.25;107625;276;95847;-57
2023/09/18 00:32:52;;;;;;;6.20;4.50;;;;;;;18.51;78.91;100634.16;107660;277;97400;-56
2023/09/18 00:35:26;;;;;;;6.80;5.00;;;;;;;18.44;79.08;100631.59;107627;277;118031;-56
2023/09/18 00:38:03;;;;;;;5.90;4.90;;;;;;;18.40;79.09;100632.92;107682;277;105372;-53
2023/09/18 00:40:47;;;;;;;6.00;4.80;;;;;;;18.35;79.24;100632.52;107646;276;114765;-53
2023/09/18 00:43:20;;;;;;;6.40;4.90;;;;;;;18.24;79.23;100628.86;107623;276;95239;-57
2023/09/18 00:45:54;;;;;;;6.00;4.80;;;;;;;18.17;79.47;100629.43;107695;276;98127;-56
2023/09/18 00:48:34;;;;;;;6.00;5.30;;;;;;;18.09;79.33;100626.25;107630;277;119347;-54
2023/09/18 00:51:23;;;;;;;5.90;4.90;;;;;;;17.98;79.56;100624.16;107632;276;105838;-53
2023/09/18 00:53:59;;;;;;;;;;;;;;;17.98;79.94;100624.71;107525;276;116113;-53
2023/09/18 00:56:36;;;;;;;6.10;5.20;;;;;;;17.90;80.00;100624.02;107708;276;94499;-54
2023/09/18 00:59:12;;;;;;;6.10;5.20;;;;;;;17.87;80.19;100627.35;107660;276;98024;-54
2023/09/18 01:02:02;;;;;;;5.70;5.10;;;;;;;17.85;80.31;100625.95;108165;276;119800;-59
2023/09/18 01:04:38;;;;;;;7.30;5.00;;;;;;;17.77;80.19;100626.20;109019;276;105199;-57
2023/09/18 01:07:18;;;;;;;6.10;5.40;;;;;;;17.68;80.33;100628.63;108139;276;112205;-56
2023/09/18 01:09:58;;;;;;;5.30;4.70;;;;;;;17.63;80.53;100632.42;107697;269;95328;-57
2023/09/18 01:12:43;;;;;;;5.60;4.60;;;;;;;17.57;80.70;100625.82;107617;276;98948;-56
2023/09/18 01:15:23;;;;;;;6.20;5.60;;;;;;;17.52;80.74;100625.82;107593;277;120830;-57
2023/09/18 01:18:03;;;;;;;6.30;4.70;;;;;;;17.45;80.82;100621.90;107704;276;105340;-55
2023/09/18 01:20:47;;;;;;;6.00;4.90;;;;;;;17.37;81.00;100624.39;107626;276;113701;-54
2023/09/18 01:23:28;;;;;;;5.30;4.80;;;;;;;17.30;81.14;100627.08;109002;276;94482;-58
2023/09/18 01:26:04;;;;;;;5.70;5.10;;;;;;;17.23;81.20;100625.48;108806;276;97203;-55
2023/09/18 01:28:43;;;;;;;5.70;5.10;;;;;;;17.22;81.36;100626.02;107628;276;120319;-55
2023/09/18 01:31:39;;;;;;;6.40;5.60;;;;;;;17.21;81.39;100626.30;107882;276;105367;-58
2023/09/18 01:34:31;;;;;;;7.90;5.60;;;;;;;17.19;81.75;100628.72;108937;276;112888;-58
2023/09/18 01:37:20;;;;;;;6.20;5.60;;;;;;;17.17;81.85;100632.25;108936;277;94767;-58
2023/09/18 01:40:06;;;;;;;7.10;6.10;;;;;;;17.15;82.15;100631.40;109105;276;95536;-59
2023/09/18 01:42:47;;;;;;;7.40;6.30;;;;;;;17.18;82.16;100630.25;107997;276;117802;-54
2023/09/18 01:45:22;;;;;;;8.80;6.50;;;;;;;17.21;82.35;100631.81;107507;276;105231;-53
2023/09/18 01:48:06;;;;;;;8.50;6.90;;;;;;;17.28;82.65;100626.52;107718;276;115348;-56
2023/09/18 01:50:42;;;;;;;7.20;6.10;;;;;;;17.32;82.68;100628.41;107585;276;96579;-56
2023/09/18 01:53:34;;;;;;;7.90;6.40;;;;;;;17.36;82.90;100627.02;108913;276;95892;-58
2023/09/18 01:56:18;;;;;;;14.70;8.00;;;;;;;17.38;82.98;100620.81;108958;276;118848;-57
2023/09/18 01:59:04;;;;;;;7.10;6.40;;;;;;;17.39;82.90;100618.79;108879;276;104718;-57
2023/09/18 02:01:49;;;;;;;8.20;6.30;;;;;;;17.38;83.14;100619.97;108852;276;114244;-58
2023/09/18 02:04:28;;;;;;;;;;;;;;;17.34;83.04;100616.23;109011;276;94685;-58
2023/09/18 02:07:05;;;;;;;7.70;6.30;;;;;;;17.33;83.08;100612.54;108322;276;97237;-54
2023/09/18 02:09:42;;;;;;;7.70;6.70;;;;;;;17.34;83.10;100612.79;107621;276;121013;-54
2023/09/18 02:12:19;;;;;;;7.90;6.50;;;;;;;17.34;83.22;100610.02;107669;276;105842;-56
2023/09/18 02:15:01;;;;;;;7.50;5.90;;;;;;;17.33;83.12;100611.55;107590;276;113197;-55
2023/09/18 02:17:37;;;;;;;7.20;6.30;;;;;;;17.30;83.22;100610.98;107658;276;97643;-54
2023/09/18 02:20:12;;;;;;;6.20;5.60;;;;;;;17.28;83.34;100609.51;107648;276;98085;-53
2023/09/18 02:22:46;;;;;;;;;;;;;;;17.24;83.33;100607.40;107668;276;120548;-56
2023/09/18 02:25:25;;;;;;;6.20;5.60;;;;;;;17.18;83.57;100603.89;107653;276;104846;-56
2023/09/18 02:28:04;;;;;;;6.60;6.00;;;;;;;17.17;83.65;100603.41;107693;276;115324;-56
2023/09/18 02:30:47;;;;;;;6.90;5.80;;;;;;;17.18;83.71;100600.16;107603;276;95689;-57
2023/09/18 02:33:29;;;;;;;6.80;5.80;;;;;;;17.18;83.80;100598.43;107692;276;97485;-55
2023/09/18 02:36:13;;;;;;;8.60;6.40;;;;;;;17.23;83.77;100594.98;107488;276;120836;-56
2023/09/18 02:38:49;;;;;;;7.90;6.10;;;;;;;17.29;84.05;100591.50;107649;276;105425;-56
2023/09/18 02:41:30;;;;;;;7.10;6.40;;;;;;;17.38;84.23;100586.73;107643;276;114393;-55
2023/09/18 02:44:06;;;;;;;6.70;6.10;;;;;;;17.46;84.11;100584.25;107615;276;95594;-56
2023/09/18 02:46:48;;;;;;;6.70;6.00;;;;;;;17.47;84.09;100583.05;107701;277;98314;-57
2023/09/18 02:49:25;;;;;;;7.90;6.40;;;;;;;17.51;84.14;100583.50;107598;276;121050;-55
2023/09/18 02:52:03;;;;;;;7.40;5.70;;;;;;;17.55;84.11;100583.69;107671;276;104140;-53
2023/09/18 02:54:41;;;;;;;6.40;5.50;;;;;;;17.56;84.12;100579.64;107629;276;113757;-53
2023/09/18 02:57:20;;;;;;;6.50;5.80;;;;;;;17.56;84.06;100577.07;107664;276;97854;-56
2023/09/18 03:00:00;;;;;;;7.40;6.00;;;;;;;17.56;84.11;100576.36;107598;277;98307;-56
2023/09/18 03:02:41;;;;;;;8.40;6.20;;;;;;;17.56;84.11;100574.63;107685;276;120951;-53
2023/09/18 03:05:16;;;;;;;6.50;5.70;;;;;;;17.56;84.15;100576.52;107638;277;105074;-54
2023/09/18 03:07:59;;;;;;;6.40;5.80;;;;;;;17.58;84.27;100576.03;107688;276;112125;-55
2023/09/18 03:10:41;;;;;;;6.50;5.80;;;;;;;17.60;84.13;100578.41;107623;276;97529;-55
2023/09/18 03:13:22;;;;;;;6.90;6.20;;;;;;;17.63;84.19;100577.55;107679;276;97453;-57
2023/09/18 03:16:00;;;;;;;8.30;5.50;;;;;;;17.67;84.14;100579.37;107636;276;120291;-55
2023/09/18 03:18:37;;;;;;;7.00;6.30;;;;;;;17.72;84.13;100579.77;107649;276;106080;-54
2023/09/18 03:21:18;;;;;;;6.50;5.90;;;;;;;17.77;83.97;100583.77;107641;276;114903;-56
2023/09/18 03:24:05;;;;;;;10.70;6.60;;;;;;;17.79;83.96;100584.92;108388;276;96838;-58
2023/09/18 03:26:42;;;;;;;7.40;5.50;;;;;;;17.81;83.94;100581.86;108469;276;100207;-56
2023/09/18 03:29:21;;;;;;;9.60;6.90;;;;;;;17.84;83.92;100578.13;107449;276;122805;-55
2023/09/18 03:31:59;;;;;;;6.10;5.50;;;;;;;17.83;83.94;100574.38;107678;276;106311;-55
2023/09/18 03:34:35;;;;;;;5.60;5.10;;;;;;;17.83;83.78;100574.75;107616;276;114023;-55
2023/09/18 03:37:10;;;;;;;7.20;5.90;;;;;;;17.83;83.90;100574.94;107669;276;97311;-56
2023/09/18 03:39:52;;;;;;;7.30;6.00;;;;;;;17.86;84.01;100575.87;107647;276;98264;-56
2023/09/18 03:42:27;;;;;;;7.00;6.30;;;;;;;17.85;83.88;100577.89;108247;276;120672;-58
2023/09/18 03:45:13;;;;;;;7.10;6.20;;;;;;;17.86;83.98;100582.05;108730;276;103927;-58
2023/09/18 03:47:51;;;;;;;6.30;5.70;;;;;;;17.85;83.88;100580.92;107840;276;112415;-55
2023/09/18 03:50:29;;;;;;;9.10;6.50;;;;;;;17.81;84.06;100582.58;107697;276;95740;-55
2023/09/18 03:53:03;;;;;;;6.80;6.10;;;;;;;17.82;84.02;100580.92;107640;276;97402;-55
2023/09/18 03:55:41;;;;;;;7.90;6.30;;;;;;;17.82;84.17;100581.50;107670;276;120629;-60
2023/09/18 03:58:17;;;;;;;6.80;6.10;;;;;;;17.85;84.10;100583.23;106998;277;635075;-57
2023/09/18 04:01:08;;;;;;;8.80;6.50;;;;;;;17.88;84.07;100578.11;107486;276;115042;-55
2023/09/18 04:03:48;;;;;;;7.40;6.30;;;;;;;17.93;84.01;100580.50;107592;276;97261;-52
2023/09/18 04:06:24;;;;;;;9.70;7.20;;;;;;;17.98;83.97;100577.95;107669;276;96377;-55
2023/09/18 04:09:05;;;;;;;9.00;7.10;;;;;;;18.01;83.99;100576.73;107631;276;121757;-55
2023/09/18 04:11:43;;;;;;;7.50;6.70;;;;;;;18.04;83.83;100573.53;107489;277;105714;-55
2023/09/18 04:14:23;;;;;;;9.20;7.70;;;;;;;18.08;83.89;100575.52;107636;276;114396;-55
2023/09/18 04:16:57;;;;;;;8.50;7.50;;;;;;;18.12;83.78;100574.84;107700;276;93087;-57
2023/09/18 04:19:43;;;;;;;8.30;7.50;;;;;;;18.15;83.87;100571.13;107713;276;96995;-57
2023/09/18 04:22:25;;;;;;;9.40;7.70;;;;;;;18.17;83.86;100570.46;107666;277;120068;-56
2023/09/18 04:25:05;;;;;;;8.50;7.70;;;;;;;18.17;83.68;100568.61;107666;276;106210;-56
2023/09/18 04:27:46;;;;;;;8.50;7.60;;;;;;;18.20;83.74;100566.45;107690;276;115195;-55
2023/09/18 04:30:21;;;;;;;9.30;8.40;;;;;;;18.22;83.76;100561.51;107701;276;96299;-55
2023/09/18 04:32:55;;;;;;;9.30;7.80;;;;;;;18.24;83.72;100556.34;107508;277;95371;-55
2023/09/18 04:35:31;;;;;;;10.90;8.40;;;;;;;18.27;83.72;100552.58;107627;277;120012;-55
2023/09/18 04:38:10;;;;;;;9.40;8.40;;;;;;;18.30;83.69;100553.84;107710;276;104784;-55
2023/09/18 04:41:06;;;;;;;9.10;8.10;;;;;;;18.32;83.71;100557.61;107643;277;113910;-56
2023/09/18 04:43:50;;;;;;;11.00;8.90;;;;;;;18.36;83.65;100554.09;108538;276;94478;-58
2023/09/18 04:46:29;;;;;;;9.30;7.60;;;;;;;18.38;83.49;100553.83;108649;277;96523;-58
2023/09/18 04:49:10;;;;;;;10.10;7.90;;;;;;;18.43;83.40;100556.66;108954;276;120171;-58
2023/09/18 04:52:00;;;;;;;10.10;9.00;;;;;;;18.46;83.39;100556.86;108406;276;103518;-56
2023/09/18 04:54:36;;;;;;;9.40;8.30;;;;;;;18.45;83.30;100558.65;107612;277;114585;-57
2023/09/18 04:57:18;;;;;;;9.90;8.60;;;;;;;18.50;83.18;100549.81;107623;276;96477;-54
2023/09/18 04:59:53;;;;;;;8.80;7.90;;;;;;;18.55;83.16;100553.77;107686;276;96754;-55
2023/09/18 05:02:34;;;;;;;10.30;8.10;;;;;;;18.56;83.29;100554.36;108205;276;120559;-58
2023/09/18 05:05:11;;;;;;;9.60;8.50;;;;;;;18.60;83.28;100545.02;108401;276;104272;-58
2023/09/18 05:07:47;;;;;;;9.10;8.00;;;;;;;18.64;83.27;100543.52;107872;277;112887;-55
2023/09/18 05:10:23;;;;;;;11.90;8.60;;;;;;;18.69;83.13;100540.35;107634;276;96838;-55
2023/09/18 05:12:58;;;;;;;10.10;9.00;;;;;;;18.75;83.01;100533.92;107691;276;98979;-54
2023/09/18 05:15:33;;;;;;;10.90;8.40;;;;;;;18.81;82.89;100531.89;107644;276;119590;-54
2023/09/18 05:18:15;;;;;;;9.10;8.00;;;;;;;18.85;82.79;100533.38;107761;276;105963;-57
2023/09/18 05:20:52;;;;;;;10.60;8.30;;;;;;;18.91;82.86;100535.59;107674;276;114326;-55
2023/09/18 05:23:26;;;;;;;9.60;8.40;;;;;;;18.99;82.89;100536.31;107682;276;96983;-54
2023/09/18 05:26:04;;;;;;;;;;;;;;;19.06;82.64;100529.48;107687;276;97534;-53
2023/09/18 05:28:46;;;;;;;10.50;8.80;;;;;;;19.15;82.59;100522.80;107691;276;119450;-54
2023/09/18 05:31:27;;;;;;;9.60;8.50;;;;;;;19.24;82.41;100520.27;107714;276;104601;-55
2023/09/18 05:34:01;;;;;;;10.20;9.20;;;;;;;19.35;82.24;100518.42;107671;276;113759;-56
2023/09/18 05:36:34;;;;;;;10.50;8.70;;;;;;;19.47;82.09;100515.70;107711;276;95827;-58
2023/09/18 05:39:11;;;;;;;10.70;8.90;;;;;;;19.55;82.00;100515.48;107851;276;97499;-58
2023/09/18 05:41:53;;;;;;;10.80;9.30;;;;;;;19.67;81.72;100513.73;108093;276;118568;-56
2023/09/18 05:44:39;;;;;;;10.50;9.50;;;;;;;19.78;81.47;100511.31;107730;276;104438;-54
2023/09/18 05:47:12;;;;;;;12.10;10.00;;;;;;;20.11;81.52;100509.70;107705;276;112730;-54
2023/09/18 05:49:56;;;;;;;13.00;9.20;;;;;;;20.65;80.94;100501.68;107508;276;96501;-54
2023/09/18 05:52:35;;;;;;;10.00;9.00;;;;;;;21.33;80.68;100499.41;107831;277;97502;-57
2023/09/18 05:55:11;;;;;;;14.60;9.00;;;;;;;21.57;79.93;100496.31;107686;276;119529;-57
2023/09/18 05:57:52;;;;;;;9.70;8.70;;;;;;;22.04;79.02;100500.56;108194;276;104286;-59
2023/09/18 06:00:30;;;;;;;11.50;8.70;;;;;;;22.23;78.56;100500.71;108152;276;116149;-54
2023/09/18 06:03:03;;;;;;;10.00;8.90;;;;;;;22.31;77.94;100498.23;107732;277;92950;-56
2023/09/18 06:05:45;;;;;;;11.90;9.40;;;;;;;22.32;77.33;100501.77;107770;276;97310;-58
2023/09/18 06:08:19;;;;;;;10.20;9.00;;;;;;;22.33;76.33;100499.08;108106;276;119934;-55
2023/09/18 06:11:02;;;;;;;10.90;8.80;;;;;;;22.21;76.22;100499.32;107684;276;104880;-56
2023/09/18 06:13:39;;;;;;;10.70;9.60;;;;;;;22.06;76.00;100503.22;107695;276;113826;-56
2023/09/18 06:16:12;;;;;;;10.00;8.90;;;;;;;22.03;75.82;100501.86;107699;276;95693;-53
2023/09/18 06:18:55;;;;;;;10.40;9.40;;;;;;;22.00;75.75;100498.98;107686;276;98064;-52
2023/09/18 06:21:31;;;;;;;9.80;8.80;;;;;;;22.08;75.65;100498.23;107670;277;119779;-56
2023/09/18 06:24:03;;;;;;;9.20;8.30;;;;;;;22.13;75.75;100500.08;107664;276;105780;-56
2023/09/18 06:26:37;;;;;;;11.30;8.70;;;;;;;22.12;75.68;100501.52;107697;276;115080;-57
2023/09/18 06:29:11;;;;;;;11.50;9.80;;;;;;;22.16;75.60;100497.91;107645;276;94746;-56
2023/09/18 06:31:46;;;;;;;10.10;9.10;;;;;;;22.21;75.54;100497.17;107670;276;97854;-56
2023/09/18 06:34:28;;;;;;;10.50;9.40;;;;;;;22.33;75.56;100498.10;107632;276;120957;-57
2023/09/18 06:37:07;;;;;;;10.10;9.10;;;;;;;22.46;75.16;100497.30;107713;276;105441;-62
2023/09/18 06:39:48;;;;;;;10.40;9.30;;;;;;;22.61;74.84;100496.54;107687;276;114211;-63
2023/09/18 06:42:26;;;;;;;11.10;9.60;;;;;;;22.68;74.65;100496.17;107746;276;96717;-62
2023/09/18 06:45:06;;;;;;;11.90;9.80;;;;;;;22.71;74.50;100493.75;107645;277;97405;-63
2023/09/18 06:47:50;;;;;;;10.50;9.40;;;;;;;22.80;74.48;100488.63;107667;276;122088;-58
2023/09/18 06:50:22;;;;;;;11.10;9.30;;;;;;;22.82;74.07;100490.89;107708;276;105341;-57
2023/09/18 06:52:59;;;;;;;11.10;9.30;;;;;;;22.90;74.19;100490.88;107665;276;113250;-62
2023/09/18 06:55:45;;;;;;;10.40;9.20;;;;;;;22.99;73.86;100488.44;107637;276;93973;-63
2023/09/18 06:58:19;;;;;;;10.90;9.70;;;;;;;23.00;73.81;100483.88;107659;276;97960;-62
2023/09/18 07:01:01;;;;;;;10.30;9.30;;;;;;;23.20;73.68;100482.52;107731;276;120121;-60
2023/09/18 07:03:40;;;;;;;9.70;8.80;;;;;;;23.52;73.12;100482.31;107653;276;105307;-62
2023/09/18 07:06:15;;;;;;;11.00;8.70;;;;;;;23.77;72.75;100487.11;107642;276;115093;-63
2023/09/18 07:08:53;;;;;;;9.80;8.60;;;;;;;23.89;72.42;100484.59;107692;276;93937;-62
2023/09/18 07:11:37;;;;;;;9.70;8.80;;;;;;;24.27;72.22;100484.89;107544;277;99578;-62
2023/09/18 07:14:21;;;;;;;10.30;8.40;;;;;;;24.79;71.12;100484.39;107578;277;120636;-62
2023/09/18 07:16:59;;;;;;;11.60;10.50;;;;;;;24.73;70.56;100483.39;107697;276;106286;-59
2023/09/18 07:19:36;;;;;;;9.40;8.40;;;;;;;24.74;70.02;100483.66;107664;276;113929;-58
2023/09/18 07:22:08;;;;;;;10.90;8.90;;;;;;;24.58;69.74;100484.56;107499;277;94805;-61
2023/09/18 07:24:45;;;;;;;9.50;8.00;;;;;;;24.44;69.69;100485.52;107652;276;98033;-61
2023/09/18 07:27:21;;;;;;;10.40;8.70;;;;;;;24.44;69.73;100484.42;107646;276;121536;-58
2023/09/18 07:29:58;;;;;;;9.60;8.70;;;;;;;24.52;69.66;100485.52;107623;276;105145;-58
2023/09/18 07:32:32;;;;;;;9.60;8.80;;;;;;;24.66;69.69;100481.91;107709;276;114413;-62
2023/09/18 07:35:06;;;;;;;10.00;9.00;;;;;;;24.71;69.38;100480.96;107700;276;92991;-62
2023/09/18 07:37:44;;;;;;;18.30;16.50;;;;;;;24.66;69.15;100478.10;107709;276;96411;-57
2023/09/18 07:40:22;;;;;;;10.20;8.80;;;;;;;24.73;68.97;100477.80;107663;276;120837;-58
2023/09/18 07:43:06;;;;;;;9.50;8.60;;;;;;;24.83;69.06;100477.69;107684;276;105085;-63
2023/09/18 07:45:46;;;;;;;8.90;8.00;;;;;;;25.31;68.80;100477.83;107656;276;113513;-63
2023/09/18 07:48:19;;;;;;;9.50;8.60;;;;;;;26.29;68.25;100475.98;107647;277;94691;-59
2023/09/18 07:50:59;;;;;;;8.20;7.50;;;;;;;27.90;66.25;100474.95;107707;276;97479;-60
2023/09/18 07:53:32;;;;;;;8.60;7.80;;;;;;;29.58;64.45;100470.54;107633;276;120444;-58
2023/09/18 07:56:05;;;;;;;8.80;7.70;;;;;;;30.87;62.51;100472.76;107564;276;104632;-62
2023/09/18 07:58:38;;;;;;;8.10;7.30;;;;;;;31.85;59.58;100470.25;107613;276;114125;-63
2023/09/18 08:01:16;;;;;;;7.90;7.10;;;;;;;32.86;57.53;100466.38;107696;276;94436;-64
2023/09/18 08:03:54;;;;;;;7.80;7.10;;;;;;;33.80;55.79;100461.58;107655;276;97087;-64
2023/09/18 08:06:29;;;;;;;7.90;6.50;;;;;;;34.50;53.27;100463.14;107666;276;120849;-63
2023/09/18 08:09:13;;;;;;;6.40;5.90;;;;;;;35.13;52.08;100459.10;107681;276;104985;-64
2023/09/18 08:11:49;;;;;;;6.60;6.00;;;;;;;35.60;50.53;100456.90;107675;276;114119;-63
2023/09/18 08:14:29;;;;;;;7.00;5.10;;;;;;;36.05;48.88;100449.02;107699;277;94153;-64
2023/09/18 08:17:08;;;;;;;6.20;5.70;;;;;;;36.14;47.38;100442.13;107683;276;97473;-59
2023/09/18 08:19:52;;;;;;;7.40;5.50;;;;;;;36.15;46.69;100444.97;107686;276;120966;-59
2023/09/18 08:22:31;;;;;;;6.70;5.40;;;;;;;35.99;45.27;100446.91;107675;276;104118;-65
2023/09/18 08:25:10;;;;;;;6.70;6.10;;;;;;;35.39;44.86;100445.98;107640;276;115619;-64
2023/09/18 08:27:55;;;;;;;6.50;5.80;;;;;;;34.76;44.29;100448.56;107630;276;93045;-63
2023/09/18 08:30:34;;;;;;;7.10;6.00;;;;;;;34.17;45.01;100445.44;107672;276;97177;-64
2023/09/18 08:33:08;;;;;;;6.90;6.00;;;;;;;34.10;45.70;100446.33;107651;277;119695;-59
2023/09/18 08:35:46;;;;;;;6.90;6.10;;;;;;;34.15;46.02;100448.11;107690;276;105798;-58
2023/09/18 08:38:20;;;;;;;6.50;5.90;;;;;;;34.68;45.27;100444.16;107681;276;114675;-63
2023/09/18 08:40:56;;;;;;;6.50;5.90;;;;;;;35.10;45.04;100440.59;107686;276;95232;-61
2023/09/18 08:43:29;;;;;;;8.80;8.00;;;;;;;35.48;44.48;100441.17;107715;276;98503;-60
2023/09/18 08:46:12;;;;;;;7.90;7.10;;;;;;;35.73;43.82;100433.67;107685;277;119534;-63
2023/09/18 08:49:00;;;;;;;6.40;5.80;;;;;;;35.92;43.64;100435.74;107655;276;105080;-63
2023/09/18 08:51:35;;;;;;;6.80;6.10;;;;;;;36.11;42.53;100428.14;107628;276;114958;-60
2023/09/18 08:54:10;;;;;;;6.10;5.50;;;;;;;35.91;41.32;100424.33;107676;276;95223;-58
2023/09/18 08:56:50;;;;;;;6.50;5.90;;;;;;;35.36;41.25;100427.30;107647;276;97751;-63
2023/09/18 08:59:27;;;;;;;6.50;5.70;;;;;;;35.21;40.55;100428.41;107619;276;121654;-63
2023/09/18 09:02:03;;;;;;;6.10;5.60;;;;;;;34.43;41.04;100419.95;107697;277;106095;-63
2023/09/18 09:04:35;;;;;;;6.20;5.70;;;;;;;33.81;41.72;100418.14;107639;276;114662;-63
2023/09/18 09:07:08;;;;;;;7.10;6.20;;;;;;;33.26;42.09;100418.84;107640;276;94332;-64
2023/09/18 09:09:42;;;;;;;6.10;5.60;;;;;;;32.63;42.35;100420.45;107677;277;97727;-64
2023/09/18 09:12:50;;;;;;;5.70;5.10;;;;;;;32.13;43.07;100417.19;107640;276;119854;-60
2023/09/18 09:15:26;;;;;;;7.60;5.60;;;;;;;32.05;43.69;100416.16;107689;277;105885;-59
2023/09/18 09:18:09;;;;;;;6.90;6.10;;;;;;;32.20;43.71;100419.46;107694;276;114242;-58
2023/09/18 09:20:57;;;;;;;7.20;5.80;;;;;;;32.52;43.57;100418.08;107669;276;94368;-59
2023/09/18 09:23:52;;;;;;;5.70;5.00;;;;;;;32.96;43.41;100415.39;107695;276;96735;-63
2023/09/18 09:26:25;;;;;;;5.70;5.10;;;;;;;33.15;42.48;100412.89;107708;277;120458;-59
2023/09/18 09:29:15;;;;;;;;;;;;;;;33.22;42.67;100412.76;107674;276;105624;-59
2023/09/18 09:31:56;;;;;;;5.40;4.80;;;;;;;33.00;42.44;100408.06;107698;277;114837;-60
2023/09/18 09:34:41;;;;;;;5.70;5.20;;;;;;;32.78;42.28;100403.77;107657;277;95244;-59
2023/09/18 09:37:31;;;;;;;6.40;5.40;;;;;;;32.64;42.62;100404.53;107691;276;96721;-59
2023/09/18 09:40:09;;;;;;;6.00;5.40;;;;;;;32.17;42.61;100402.48;107709;277;120980;-59
2023/09/18 09:42:46;;;;;;;5.90;5.00;;;;;;;31.64;42.67;100401.34;107677;276;105971;-59
2023/09/18 09:45:17;;;;;;;5.70;5.10;;;;;;;31.23;43.18;100402.16;107653;276;114016;-59
2023/09/18 09:47:56;;;;;;;5.70;5.20;;;;;;;30.80;43.82;100400.00;107648;276;95059;-63
2023/09/18 09:50:46;;;;;;;4.90;4.50;;;;;;;30.41;44.26;100397.39;107703;276;97920;-63
2023/09/18 09:53:42;;;;;;;5.20;4.30;;;;;;;30.13;44.38;100391.36;107674;276;121148;-63
2023/09/18 09:56:21;;;;;;;4.70;4.20;;;;;;;29.81;44.62;100388.86;107535;276;106414;-64
2023/09/18 09:59:14;;;;;;;4.80;4.10;;;;;;;29.53;44.57;100385.48;107638;276;114825;-63
2023/09/18 10:01:50;;;;;;;4.50;4.10;;;;;;;29.39;45.33;100385.66;107643;276;94693;-59
2023/09/18 10:04:24;;;;;;;4.80;4.30;;;;;;;29.29;45.59;100383.95;107647;277;98329;-58
2023/09/18 10:07:03;;;;;;;6.10;4.70;;;;;;;29.24;45.42;100377.36;107653;276;120882;-58
2023/09/18 10:09:41;;;;;;;4.70;4.30;;;;;;;28.97;45.44;100378.55;107614;277;105176;-58
2023/09/18 10:12:21;;;;;;;5.00;4.50;;;;;;;28.83;46.03;100373.75;107645;276;115156;-63
2023/09/18 10:14:59;;;;;;;5.20;4.60;;;;;;;28.86;46.62;100369.16;107721;276;93691;-62
2023/09/18 10:17:44;;;;;;;6.10;4.90;;;;;;;28.93;46.62;100367.36;107742;276;96585;-59
2023/09/18 10:20:20;;;;;;;5.20;4.70;;;;;;;28.86;46.70;100362.23;107698;276;121616;-59
2023/09/18 10:22:57;;;;;;;5.60;4.80;;;;;;;28.85;46.80;100358.80;107714;276;105776;-58
2023/09/18 10:25:36;;;;;;;5.60;5.10;;;;;;;28.87;47.08;100351.19;107647;276;114299;-59
2023/09/18 10:28:15;;;;;;;5.50;5.00;;;;;;;28.91;47.64;100349.48;107667;276;95356;-59
2023/09/18 10:30:58;;;;;;;4.80;4.40;;;;;;;28.97;47.65;100348.35;107699;276;97592;-57
2023/09/18 10:33:41;;;;;;;;;;;;;;;29.00;47.59;100338.98;107676;276;122490;-56
2023/09/18 10:36:14;;;;;;;5.50;5.00;;;;;;;29.03;47.65;100340.70;107704;276;105183;-58
2023/09/18 10:38:51;;;;;;;5.20;4.70;;;;;;;28.96;47.35;100338.20;107668;276;114652;-59
2023/09/18 10:41:34;;;;;;;5.50;5.00;;;;;;;28.98;47.80;100337.16;107711;276;95175;-58
2023/09/18 10:44:11;;;;;;;5.90;5.40;;;;;;;28.95;47.45;100336.67;107662;277;95637;-58
2023/09/18 10:46:50;;;;;;;5.40;4.90;;;;;;;28.87;47.32;100330.39;107656;276;120750;-59
2023/09/18 10:49:28;;;;;;;5.10;4.70;;;;;;;28.82;47.27;100333.85;107689;276;104785;-58
2023/09/18 10:52:13;;;;;;;6.80;4.70;;;;;;;28.85;47.30;100326.76;107630;276;114670;-58
2023/09/18 10:54:56;;;;;;;4.90;4.40;;;;;;;28.87;47.25;100326.55;107637;276;94540;-57
2023/09/18 10:57:35;;;;;;;5.00;4.50;;;;;;;28.86;47.21;100324.24;107700;276;97702;-59
2023/09/18 11:00:22;;;;;;;5.10;4.60;;;;;;;28.81;47.29;100322.23;107638;276;120346;-57
2023/09/18 11:03:14;;;;;;;4.90;4.50;;;;;;;28.76;47.03;100326.02;107673;277;105100;-56
2023/09/18 11:06:04;;;;;;;4.40;4.00;;;;;;;28.56;46.74;100328.13;107626;277;113077;-58
2023/09/18 11:08:46;;;;;;;5.10;4.60;;;;;;;28.55;47.04;100317.02;107627;276;95095;-59
2023/09/18 11:11:25;;;;;;;5.00;4.60;;;;;;;28.64;47.43;100307.92;107717;276;96845;-58
2023/09/18 11:14:26;;;;;;;5.30;4.80;;;;;;;28.67;47.54;100301.58;107642;276;120430;-58
2023/09/18 11:17:06;;;;;;;5.50;5.10;;;;;;;28.78;47.51;100297.83;107659;276;106281;-58
2023/09/18 11:19:50;;;;;;;4.90;4.50;;;;;;;28.62;46.94;100298.77;107633;277;114016;-58
2023/09/18 11:22:30;;;;;;;4.80;4.40;;;;;;;28.56;47.17;100304.56;107651;276;94147;-59
2023/09/18 11:25:37;;;;;;;5.20;4.60;;;;;;;28.39;46.41;100304.41;107665;276;98350;-59
2023/09/18 11:28:17;;;;;;;5.60;4.90;;;;;;;28.13;46.72;100292.50;107664;276;120483;-58
2023/09/18 11:31:00;;;;;;;5.60;5.00;;;;;;;28.10;46.63;100286.45;107649;276;105644;-57
2023/09/18 11:33:36;;;;;;;5.80;4.50;;;;;;;28.13;46.92;100290.39;107635;276;114899;-57
2023/09/18 11:36:32;;;;;;;6.50;5.20;;;;;;;28.17;47.18;100287.59;107709;277;94777;-60
2023/09/18 11:39:35;;;;;;;5.10;4.70;;;;;;;28.34;47.04;100289.18;108181;276;96548;-59
2023/09/18 11:42:17;;;;;;;5.40;4.90;;;;;;;28.23;47.04;100289.26;107777;276;119138;-55
2023/09/18 11:44:53;;;;;;;6.30;5.50;;;;;;;28.01;47.12;100292.34;107549;276;105821;-55
2023/09/18 11:47:29;;;;;;;5.70;5.20;;;;;;;27.84;47.51;100294.70;107681;276;113099;-55
2023/09/18 11:50:11;;;;;;;6.70;5.90;;;;;;;27.86;47.59;100287.55;107659;276;93078;-56
2023/09/18 11:52:51;;;;;;;6.20;5.60;;;;;;;27.86;47.19;100282.66;108136;276;100340;-60
2023/09/18 11:55:24;;;;;;;6.60;5.90;;;;;;;27.95;47.02;100282.50;108443;276;119421;-60
2023/09/18 11:58:04;;;;;;;6.40;5.80;;;;;;;28.00;46.48;100289.17;106940;277;744326;-57
2023/09/18 12:00:50;;;;;;;6.70;6.10;;;;;;;27.84;46.43;100285.15;107648;276;114168;-57
2023/09/18 12:03:32;;;;;;;6.60;6.00;;;;;;;27.65;46.76;100283.72;108658;276;92380;-60
2023/09/18 12:06:14;;;;;;;6.90;6.20;;;;;;;27.63;47.07;100275.33;108846;277;96379;-59
2023/09/18 12:09:01;;;;;;;6.50;5.90;;;;;;;27.72;46.91;100271.54;108492;276;119350;-59
2023/09/18 12:11:34;;;;;;;6.30;5.80;;;;;;;27.77;46.95;100270.52;107935;276;105308;-59
2023/09/18 12:14:09;;;;;;;5.90;5.40;;;;;;;27.72;46.73;100272.70;107682;276;114105;-57
2023/09/18 12:16:50;;;;;;;6.90;5.60;;;;;;;27.57;46.80;100272.05;107517;276;93804;-58